createdAt,value
2022-08-19T00:02:02.858Z,17.14
2022-08-19T00:04:35.927Z,17.16
2022-08-19T00:07:06.483Z,17.11
2022-08-19T00:09:33.582Z,17.13
2022-08-19T00:12:01.247Z,17.12
2022-08-19T00:14:32.890Z,17.04
2022-08-19T00:17:00.851Z,17.05
2022-08-19T00:19:28.144Z,17.04
2022-08-19T00:21:57.233Z,17.04
2022-08-19T00:24:24.248Z,17.04
2022-08-19T00:26:51.813Z,17.04
2022-08-19T00:29:21.024Z,17.07
2022-08-19T00:31:47.923Z,17.09
2022-08-19T00:34:17.835Z,17.13
2022-08-19T00:36:45.154Z,17.17
2022-08-19T00:39:13.593Z,17.21
2022-08-19T00:41:41.240Z,17.23
2022-08-19T00:44:15.094Z,17.26
2022-08-19T00:46:45.252Z,17.30
2022-08-19T00:49:29.661Z,17.31
2022-08-19T00:52:05.665Z,17.31
2022-08-19T00:54:34.168Z,17.30
2022-08-19T00:57:03.093Z,17.28
2022-08-19T00:59:56.349Z,17.24
2022-08-19T01:02:18.458Z,17.19
2022-08-19T01:04:45.321Z,17.20
2022-08-19T01:07:16.677Z,17.17
2022-08-19T01:09:46.692Z,17.18
2022-08-19T01:12:13.881Z,17.18
2022-08-19T01:14:41.713Z,17.17
2022-08-19T01:17:12.314Z,17.18
2022-08-19T01:19:43.971Z,17.19
2022-08-19T01:22:36.061Z,17.16
2022-08-19T01:25:03.467Z,17.13
2022-08-19T01:27:46.926Z,17.10
2022-08-19T01:30:17.627Z,17.12
2022-08-19T01:32:44.708Z,17.14
2022-08-19T01:35:12.700Z,17.11
2022-08-19T01:37:52.986Z,17.11
2022-08-19T01:40:22.423Z,17.08
2022-08-19T01:42:51.204Z,17.07
2022-08-19T01:45:20.194Z,17.06
2022-08-19T01:47:55.324Z,17.10
2022-08-19T01:50:30.710Z,17.11
2022-08-19T01:53:03.668Z,17.13
2022-08-19T01:55:41.296Z,17.17
2022-08-19T01:58:13.484Z,17.17
2022-08-19T02:00:41.158Z,17.19
2022-08-19T02:03:11.096Z,17.15
2022-08-19T02:05:38.745Z,17.19
2022-08-19T02:08:06.050Z,17.21
2022-08-19T02:10:33.232Z,17.22
2022-08-19T02:13:00.363Z,17.21
2022-08-19T02:15:27.171Z,17.12
2022-08-19T02:17:53.975Z,17.06
2022-08-19T02:20:20.850Z,17.05
2022-08-19T02:22:47.652Z,16.99
2022-08-19T02:25:15.442Z,16.90
2022-08-19T02:27:43.309Z,16.79
2022-08-19T02:30:16.782Z,16.74
2022-08-19T02:32:44.786Z,16.68
2022-08-19T02:35:13.357Z,16.62
2022-08-19T02:37:59.895Z,16.51
2022-08-19T02:40:27.896Z,16.46
2022-08-19T02:42:54.989Z,16.48
2022-08-19T02:45:22.101Z,16.43
2022-08-19T02:47:48.934Z,16.41
2022-08-19T02:50:15.792Z,16.34
2022-08-19T02:52:42.673Z,16.31
2022-08-19T02:55:09.917Z,16.28
2022-08-19T02:57:36.993Z,16.24
2022-08-19T03:00:11.516Z,16.26
2022-08-19T03:02:38.320Z,16.21
2022-08-19T03:05:07.076Z,16.16
2022-08-19T03:07:33.897Z,16.15
2022-08-19T03:10:00.733Z,16.14
2022-08-19T03:12:27.566Z,16.14
2022-08-19T03:14:54.414Z,16.18
2022-08-19T03:17:21.531Z,16.19
2022-08-19T03:19:48.341Z,16.14
2022-08-19T03:22:15.207Z,16.17
2022-08-19T03:24:42.088Z,16.16
2022-08-19T03:27:08.944Z,16.12
2022-08-19T03:29:43.210Z,16.07
2022-08-19T03:32:27.890Z,16.06
2022-08-19T03:34:58.592Z,15.96
2022-08-19T03:37:25.421Z,15.99
2022-08-19T03:39:52.784Z,15.92
2022-08-19T03:42:31.973Z,15.86
2022-08-19T03:45:00.205Z,15.81
2022-08-19T03:47:27.038Z,15.75
2022-08-19T03:49:53.816Z,15.70
2022-08-19T03:52:20.589Z,15.61
2022-08-19T03:54:47.446Z,15.56
2022-08-19T03:57:14.282Z,15.53
2022-08-19T03:59:41.208Z,15.50
2022-08-19T04:02:12.164Z,15.44
2022-08-19T04:04:40.935Z,15.41
2022-08-19T04:07:08.097Z,15.35
2022-08-19T04:09:37.665Z,15.32
2022-08-19T04:12:06.548Z,15.25
2022-08-19T04:14:34.823Z,15.15
2022-08-19T04:17:05.908Z,15.07
2022-08-19T04:19:34.786Z,14.97
2022-08-19T04:22:02.139Z,14.92
2022-08-19T04:24:29.154Z,14.88
2022-08-19T04:26:55.961Z,14.84
2022-08-19T04:29:26.358Z,14.80
2022-08-19T04:31:54.801Z,14.75
2022-08-19T04:34:24.954Z,14.71
2022-08-19T04:36:54.471Z,14.65
2022-08-19T04:39:45.852Z,14.62
2022-08-19T04:42:31.832Z,14.59
2022-08-19T04:44:59.723Z,14.55
2022-08-19T04:47:47.443Z,14.55
2022-08-19T04:50:14.922Z,14.54
2022-08-19T04:52:44.888Z,14.50
2022-08-19T04:55:12.425Z,14.50
2022-08-19T04:57:41.278Z,14.46
2022-08-19T05:00:10.085Z,14.51
2022-08-19T05:02:37.044Z,14.57
2022-08-19T05:05:04.373Z,14.62
2022-08-19T05:07:31.901Z,14.64
2022-08-19T05:09:59.293Z,14.64
2022-08-19T05:12:29.218Z,14.57
2022-08-19T05:14:58.025Z,14.54
2022-08-19T05:17:28.208Z,14.51
2022-08-19T05:20:15.006Z,14.54
2022-08-19T05:22:42.720Z,14.51
2022-08-19T05:25:13.798Z,14.47
2022-08-19T05:27:42.638Z,14.43
2022-08-19T05:30:11.944Z,14.40
2022-08-19T05:32:40.231Z,14.38
2022-08-19T05:35:08.108Z,14.35
2022-08-19T05:37:35.329Z,14.28
2022-08-19T05:40:02.845Z,14.24
2022-08-19T05:42:29.787Z,14.19
2022-08-19T05:44:57.714Z,14.23
2022-08-19T05:47:24.649Z,14.24
2022-08-19T05:49:52.055Z,14.20
2022-08-19T05:52:19.430Z,14.26
2022-08-19T05:54:52.255Z,14.35
2022-08-19T05:57:20.306Z,14.42
2022-08-19T05:59:50.937Z,14.40
2022-08-19T06:02:26.034Z,14.39
2022-08-19T06:04:53.028Z,14.38
2022-08-19T06:07:20.595Z,14.39
2022-08-19T06:09:59.160Z,14.39
2022-08-19T06:12:36.057Z,14.42
2022-08-19T06:15:08.188Z,14.50
2022-08-19T06:17:36.254Z,14.52
2022-08-19T06:20:09.864Z,14.57
2022-08-19T06:22:41.589Z,14.60
2022-08-19T06:25:10.333Z,14.65
2022-08-19T06:27:41.994Z,14.76
2022-08-19T06:30:15.980Z,14.80
2022-08-19T06:32:43.137Z,14.86
2022-08-19T06:35:10.331Z,14.93
2022-08-19T06:37:40.834Z,14.97
2022-08-19T06:40:11.697Z,14.99
2022-08-19T06:42:54.172Z,14.96
2022-08-19T06:45:25.059Z,15.00
2022-08-19T06:47:57.068Z,15.11
2022-08-19T06:50:25.006Z,15.17
2022-08-19T06:52:53.103Z,15.21
2022-08-19T06:55:20.238Z,15.28
2022-08-19T06:57:47.590Z,15.19
2022-08-19T07:00:15.147Z,15.31
2022-08-19T07:02:48.265Z,15.35
2022-08-19T07:05:23.027Z,15.40
2022-08-19T07:07:50.950Z,15.45
2022-08-19T07:10:18.145Z,15.50
2022-08-19T07:12:45.482Z,15.56
2022-08-19T07:15:13.062Z,15.66
2022-08-19T07:17:42.021Z,15.69
2022-08-19T07:20:10.334Z,15.76
2022-08-19T07:22:40.368Z,15.82
2022-08-19T07:25:09.440Z,15.97
2022-08-19T07:27:36.710Z,15.88
2022-08-19T07:30:04.186Z,15.98
2022-08-19T07:32:32.497Z,15.99
2022-08-19T07:35:01.715Z,15.96
2022-08-19T07:37:33.040Z,15.98
2022-08-19T07:40:01.843Z,16.01
2022-08-19T07:42:30.811Z,16.10
2022-08-19T07:44:58.884Z,16.19
2022-08-19T07:47:48.905Z,16.29
2022-08-19T07:50:12.740Z,16.37
2022-08-19T07:52:40.669Z,16.42
2022-08-19T07:55:40.448Z,16.43
2022-08-19T07:57:58.763Z,16.39
2022-08-19T08:00:25.816Z,16.46
2022-08-19T08:02:55.494Z,16.51
2022-08-19T08:05:44.010Z,16.47
2022-08-19T08:08:30.592Z,16.61
2022-08-19T08:10:57.757Z,16.59
2022-08-19T08:13:28.216Z,16.56
2022-08-19T08:15:56.649Z,16.59
2022-08-19T08:18:27.481Z,16.67
2022-08-19T08:20:56.832Z,16.76
2022-08-19T08:23:26.794Z,16.79
2022-08-19T08:25:57.576Z,16.81
2022-08-19T08:28:25.452Z,16.83
2022-08-19T08:30:53.507Z,16.95
2022-08-19T08:33:33.831Z,16.93
2022-08-19T08:36:08.886Z,17.08
2022-08-19T08:38:41.248Z,17.21
2022-08-19T08:41:41.776Z,17.09
2022-08-19T08:44:17.136Z,17.19
2022-08-19T08:47:01.941Z,17.31
2022-08-19T08:49:41.299Z,17.23
2022-08-19T08:52:39.447Z,17.42
2022-08-19T08:55:11.877Z,17.45
2022-08-19T08:57:52.254Z,17.51
2022-08-19T09:00:24.216Z,17.55
2022-08-19T09:02:51.656Z,17.65
2022-08-19T09:05:25.836Z,17.76
2022-08-19T09:08:13.785Z,17.86
2022-08-19T09:10:55.188Z,17.82
2022-08-19T09:13:34.719Z,17.78
2022-08-19T09:16:21.158Z,17.74
2022-08-19T09:18:54.642Z,17.61
2022-08-19T09:21:30.272Z,17.58
2022-08-19T09:23:58.853Z,17.54
2022-08-19T09:26:35.222Z,17.53
2022-08-19T09:29:15.122Z,17.33
2022-08-19T09:31:42.070Z,17.52
2022-08-19T09:34:21.423Z,17.49
2022-08-19T09:36:56.117Z,17.53
2022-08-19T09:39:23.679Z,17.32
2022-08-19T09:41:54.059Z,17.42
2022-08-19T09:44:24.381Z,17.44
2022-08-19T09:46:53.865Z,17.55
2022-08-19T09:49:22.829Z,17.83
2022-08-19T09:51:54.479Z,18.03
2022-08-19T09:54:23.520Z,18.25
2022-08-19T09:56:52.357Z,18.14
2022-08-19T09:59:19.468Z,18.00
2022-08-19T10:01:46.513Z,18.12
2022-08-19T10:04:20.155Z,18.33
2022-08-19T10:06:53.973Z,18.41
2022-08-19T10:09:33.962Z,18.52
2022-08-19T10:12:02.992Z,18.45
2022-08-19T10:14:30.818Z,18.31
2022-08-19T10:16:59.236Z,18.10
2022-08-19T10:19:31.156Z,18.01
2022-08-19T10:22:00.455Z,18.11
2022-08-19T10:24:29.055Z,18.11
2022-08-19T10:26:58.736Z,17.97
2022-08-19T10:29:32.897Z,17.80
2022-08-19T10:32:05.631Z,17.69
2022-08-19T10:34:48.171Z,17.72
2022-08-19T10:37:23.932Z,17.85
2022-08-19T10:39:56.327Z,17.96
2022-08-19T10:42:23.316Z,18.15
2022-08-19T10:44:51.813Z,18.47
2022-08-19T10:47:24.732Z,18.66
2022-08-19T10:50:17.088Z,19.00
2022-08-19T10:52:48.964Z,19.28
2022-08-19T10:55:40.372Z,19.18
2022-08-19T10:58:23.169Z,19.16
2022-08-19T11:00:58.799Z,19.14
2022-08-19T11:03:29.022Z,19.06
2022-08-19T11:06:07.145Z,19.15
2022-08-19T11:08:35.988Z,19.00
2022-08-19T11:11:04.320Z,18.99
2022-08-19T11:13:34.572Z,18.89
2022-08-19T11:16:07.666Z,19.05
2022-08-19T11:18:39.775Z,19.19
2022-08-19T11:21:20.530Z,19.22
2022-08-19T11:23:49.795Z,19.20
2022-08-19T11:26:18.813Z,19.22
2022-08-19T11:28:46.192Z,19.44
2022-08-19T11:31:18.176Z,19.51
2022-08-19T11:33:48.055Z,19.40
2022-08-19T11:36:15.414Z,19.44
2022-08-19T11:38:43.432Z,19.38
2022-08-19T11:41:10.328Z,19.31
2022-08-19T11:43:38.029Z,19.22
2022-08-19T11:46:10.980Z,19.20
2022-08-19T11:48:38.408Z,18.99
2022-08-19T11:51:09.808Z,18.98
2022-08-19T11:53:37.907Z,19.03
2022-08-19T11:56:06.969Z,19.02
2022-08-19T11:58:35.528Z,18.99
2022-08-19T12:01:05.834Z,18.83
2022-08-19T12:03:32.679Z,18.97
2022-08-19T12:05:59.587Z,18.99
2022-08-19T12:08:26.422Z,18.96
2022-08-19T12:10:53.272Z,19.05
2022-08-19T12:13:20.134Z,19.01
2022-08-19T12:15:48.604Z,19.13
2022-08-19T12:18:15.819Z,19.21
2022-08-19T12:20:44.792Z,19.24
2022-08-19T12:23:11.929Z,19.30
2022-08-19T12:25:51.056Z,19.55
2022-08-19T12:28:21.161Z,19.75
2022-08-19T12:30:49.142Z,19.81
2022-08-19T12:33:16.081Z,19.84
2022-08-19T12:35:47.542Z,19.84
2022-08-19T12:38:15.716Z,19.91
2022-08-19T12:40:42.999Z,19.91
2022-08-19T12:43:09.849Z,19.92
2022-08-19T12:45:37.074Z,19.82
2022-08-19T12:48:34.621Z,19.86
2022-08-19T12:50:53.778Z,19.72
2022-08-19T12:53:20.569Z,19.76
2022-08-19T12:55:47.453Z,19.64
2022-08-19T12:58:14.339Z,19.71
2022-08-19T13:00:42.396Z,19.65
2022-08-19T13:03:10.635Z,19.75
2022-08-19T13:05:37.631Z,19.98
2022-08-19T13:08:04.536Z,20.00
2022-08-19T13:10:38.911Z,19.80
2022-08-19T13:13:09.703Z,19.67
2022-08-19T13:15:41.283Z,19.66
2022-08-19T13:18:11.445Z,19.83
2022-08-19T13:20:41.675Z,20.03
2022-08-19T13:23:09.449Z,20.20
2022-08-19T13:25:37.886Z,20.41
2022-08-19T13:28:07.536Z,20.36
2022-08-19T13:30:52.979Z,20.25
2022-08-19T13:33:19.926Z,20.31
2022-08-19T13:36:01.449Z,20.49
2022-08-19T13:38:29.381Z,20.73
2022-08-19T13:40:56.825Z,20.86
2022-08-19T13:43:27.157Z,20.83
2022-08-19T13:45:57.407Z,20.76
2022-08-19T13:48:27.569Z,20.83
2022-08-19T13:50:55.241Z,20.91
2022-08-19T13:53:22.236Z,21.09
2022-08-19T13:55:49.739Z,21.13
2022-08-19T13:58:16.561Z,21.16
2022-08-19T14:00:46.165Z,21.00
2022-08-19T14:03:14.358Z,21.12
2022-08-19T14:05:41.462Z,21.09
2022-08-19T14:08:08.387Z,21.00
2022-08-19T14:10:35.279Z,20.76
2022-08-19T14:13:04.351Z,20.65
2022-08-19T14:15:32.199Z,20.13
2022-08-19T14:17:59.227Z,20.23
2022-08-19T14:20:26.567Z,20.32
2022-08-19T14:22:54.720Z,20.34
2022-08-19T14:25:28.059Z,20.33
2022-08-19T14:27:55.773Z,20.31
2022-08-19T14:30:29.141Z,20.27
2022-08-19T14:32:57.786Z,20.27
2022-08-19T14:35:25.401Z,20.38
2022-08-19T14:37:56.238Z,20.45
2022-08-19T14:40:28.597Z,20.39
2022-08-19T14:43:05.274Z,20.30
2022-08-19T14:45:35.445Z,20.36
2022-08-19T14:48:04.444Z,20.62
2022-08-19T14:50:31.655Z,20.79
2022-08-19T14:53:09.111Z,20.93
2022-08-19T14:55:42.999Z,21.06
2022-08-19T14:58:10.052Z,21.05
2022-08-19T15:00:58.187Z,21.24
2022-08-19T15:03:25.215Z,21.20
2022-08-19T15:05:53.201Z,21.13
2022-08-19T15:08:20.112Z,21.16
2022-08-19T15:10:48.831Z,21.11
2022-08-19T15:13:15.823Z,21.09
2022-08-19T15:15:43.709Z,20.98
2022-08-19T15:18:12.686Z,20.83
2022-08-19T15:20:40.112Z,20.71
2022-08-19T15:23:09.033Z,20.57
2022-08-19T15:25:35.853Z,20.46
2022-08-19T15:28:04.983Z,20.42
2022-08-19T15:30:31.888Z,20.39
2022-08-19T15:32:59.176Z,20.48
2022-08-19T15:35:26.983Z,20.47
2022-08-19T15:37:54.628Z,20.48
2022-08-19T15:40:24.551Z,20.54
2022-08-19T15:42:51.588Z,20.38
2022-08-19T15:45:20.256Z,20.31
2022-08-19T15:47:47.753Z,20.28
2022-08-19T15:50:20.017Z,20.13
2022-08-19T15:52:54.307Z,20.23
2022-08-19T15:55:33.501Z,20.18
2022-08-19T15:58:27.849Z,20.24
2022-08-19T16:01:13.808Z,20.30
2022-08-19T16:04:00.861Z,20.14
2022-08-19T16:06:29.593Z,20.14
2022-08-19T16:09:00.122Z,20.23
2022-08-19T16:11:30.521Z,20.29
2022-08-19T16:13:59.004Z,20.31
2022-08-19T16:16:33.691Z,20.32
2022-08-19T16:19:03.869Z,20.32
2022-08-19T16:21:33.450Z,20.29
2022-08-19T16:24:03.128Z,20.21
2022-08-19T16:26:31.726Z,20.21
2022-08-19T16:29:00.084Z,20.26
2022-08-19T16:31:28.253Z,20.21
2022-08-19T16:33:55.717Z,20.24
2022-08-19T16:36:25.936Z,20.27
2022-08-19T16:38:55.240Z,20.23
2022-08-19T16:41:22.569Z,20.13
2022-08-19T16:43:52.620Z,20.18
2022-08-19T16:46:21.426Z,20.24
2022-08-19T16:48:50.680Z,20.17
2022-08-19T16:51:18.356Z,20.15
2022-08-19T16:53:45.415Z,20.07
2022-08-19T16:56:12.970Z,19.89
2022-08-19T16:58:40.607Z,19.87
2022-08-19T17:01:09.286Z,19.85
2022-08-19T17:03:37.723Z,19.81
2022-08-19T17:06:18.365Z,19.70
2022-08-19T17:08:51.033Z,19.58
2022-08-19T17:11:19.816Z,19.46
2022-08-19T17:13:48.321Z,19.52
2022-08-19T17:16:21.920Z,19.57
2022-08-19T17:18:52.388Z,19.66
2022-08-19T17:21:20.746Z,19.51
2022-08-19T17:23:47.548Z,19.51
2022-08-19T17:26:18.045Z,19.51
2022-08-19T17:28:49.797Z,19.55
2022-08-19T17:31:18.014Z,19.55
2022-08-19T17:33:48.279Z,19.60
2022-08-19T17:36:23.459Z,19.64
2022-08-19T17:38:52.752Z,19.63
2022-08-19T17:41:19.689Z,19.55
2022-08-19T17:43:46.576Z,19.59
2022-08-19T17:46:20.791Z,19.54
2022-08-19T17:48:52.554Z,19.44
2022-08-19T17:51:36.030Z,19.41
2022-08-19T17:54:05.583Z,19.34
2022-08-19T17:56:32.768Z,19.37
2022-08-19T17:59:01.532Z,19.37
2022-08-19T18:01:43.004Z,19.27
2022-08-19T18:04:18.905Z,19.19
2022-08-19T18:06:52.718Z,19.11
2022-08-19T18:09:41.831Z,18.95
2022-08-19T18:12:14.232Z,18.79
2022-08-19T18:14:41.730Z,18.74
2022-08-19T18:17:12.790Z,18.67
2022-08-19T18:19:43.628Z,18.67
2022-08-19T18:22:20.774Z,18.58
2022-08-19T18:24:47.592Z,18.55
2022-08-19T18:27:14.818Z,18.48
2022-08-19T18:29:41.848Z,18.50
2022-08-19T18:32:14.729Z,18.49
2022-08-19T18:34:43.521Z,18.52
2022-08-19T18:37:11.196Z,18.48
2022-08-19T18:39:56.763Z,18.49
2022-08-19T18:42:42.317Z,18.36
2022-08-19T18:45:28.295Z,18.34
2022-08-19T18:48:27.015Z,18.21
2022-08-19T18:51:01.013Z,18.19
2022-08-19T18:53:30.487Z,18.17
2022-08-19T18:55:58.393Z,17.98
2022-08-19T18:58:32.410Z,17.88
2022-08-19T19:01:00.310Z,17.84
2022-08-19T19:03:27.280Z,17.77
2022-08-19T19:05:54.617Z,17.61
2022-08-19T19:08:27.477Z,17.57
2022-08-19T19:10:56.386Z,17.53
2022-08-19T19:13:23.334Z,17.54
2022-08-19T19:15:50.175Z,17.58
2022-08-19T19:18:16.960Z,17.52
2022-08-19T19:20:43.791Z,17.54
2022-08-19T19:23:10.713Z,17.43
2022-08-19T19:25:49.988Z,17.40
2022-08-19T19:28:17.974Z,17.35
2022-08-19T19:30:45.131Z,17.29
2022-08-19T19:33:12.321Z,17.26
2022-08-19T19:35:41.097Z,17.24
2022-08-19T19:38:12.621Z,17.19
2022-08-19T19:40:39.675Z,17.18
2022-08-19T19:43:06.475Z,17.09
2022-08-19T19:45:33.644Z,17.03
2022-08-19T19:48:00.782Z,16.90
2022-08-19T19:50:31.394Z,16.84
2022-08-19T19:52:58.607Z,16.74
2022-08-19T19:55:26.845Z,16.73
2022-08-19T19:57:54.482Z,16.64
2022-08-19T20:00:22.177Z,16.58
2022-08-19T20:02:50.880Z,16.50
2022-08-19T20:05:20.946Z,16.45
2022-08-19T20:08:07.023Z,16.40
2022-08-19T20:10:34.358Z,16.35
2022-08-19T20:13:02.558Z,16.29
2022-08-19T20:15:31.504Z,16.22
2022-08-19T20:18:00.034Z,16.21
2022-08-19T20:20:27.530Z,16.21
2022-08-19T20:22:54.762Z,16.19
2022-08-19T20:25:22.278Z,16.17
2022-08-19T20:27:49.672Z,16.12
2022-08-19T20:30:19.712Z,16.09
2022-08-19T20:32:48.364Z,16.07
2022-08-19T20:35:18.835Z,16.08
2022-08-19T20:37:45.684Z,16.04
2022-08-19T20:40:13.560Z,15.99
2022-08-19T20:42:42.046Z,15.98
2022-08-19T20:45:32.510Z,15.91
2022-08-19T20:47:58.608Z,15.81
2022-08-19T20:50:26.183Z,15.76
2022-08-19T20:52:57.271Z,15.73
2022-08-19T20:55:24.405Z,15.72
2022-08-19T20:57:51.774Z,15.70
2022-08-19T21:00:19.324Z,15.65
2022-08-19T21:02:47.085Z,15.65
2022-08-19T21:05:13.976Z,15.64
2022-08-19T21:07:40.831Z,15.59
2022-08-19T21:10:08.071Z,15.49
2022-08-19T21:12:35.600Z,15.39
2022-08-19T21:15:02.550Z,15.38
2022-08-19T21:17:29.445Z,15.35
2022-08-19T21:19:56.264Z,15.36
2022-08-19T21:22:23.113Z,15.34
2022-08-19T21:24:49.905Z,15.29
2022-08-19T21:27:16.682Z,15.24
2022-08-19T21:29:44.665Z,15.21
2022-08-19T21:32:14.025Z,15.16
2022-08-19T21:34:44.134Z,15.10
2022-08-19T21:37:24.810Z,15.04
2022-08-19T21:39:52.453Z,15.00
2022-08-19T21:42:19.413Z,14.97
2022-08-19T21:44:46.249Z,14.94
2022-08-19T21:47:13.239Z,14.89
2022-08-19T21:49:40.167Z,14.89
2022-08-19T21:52:08.351Z,14.87
2022-08-19T21:54:38.523Z,14.85
2022-08-19T21:57:10.683Z,14.76
2022-08-19T21:59:41.287Z,14.72
2022-08-19T22:02:20.395Z,14.74
2022-08-19T22:04:51.911Z,14.69
2022-08-19T22:07:21.396Z,14.69
2022-08-19T22:09:50.134Z,14.64
2022-08-19T22:12:28.468Z,14.68
2022-08-19T22:14:56.748Z,14.64
2022-08-19T22:17:24.529Z,14.58
2022-08-19T22:19:52.608Z,14.57
2022-08-19T22:22:30.792Z,14.55
2022-08-19T22:25:07.245Z,14.51
2022-08-19T22:27:34.276Z,14.47
2022-08-19T22:30:01.303Z,14.46
2022-08-19T22:32:30.914Z,14.45
2022-08-19T22:34:59.855Z,14.42
2022-08-19T22:37:29.673Z,14.42
2022-08-19T22:39:56.656Z,14.35
2022-08-19T22:42:29.099Z,14.26
2022-08-19T22:45:00.215Z,14.19
2022-08-19T22:47:32.077Z,14.19
2022-08-19T22:50:01.397Z,14.14
2022-08-19T22:52:28.319Z,14.17
2022-08-19T22:55:00.300Z,14.15
2022-08-19T22:57:28.089Z,14.12
2022-08-19T22:59:56.092Z,14.11
2022-08-19T23:02:32.262Z,14.09
2022-08-19T23:05:02.636Z,14.11
2022-08-19T23:07:29.705Z,14.12
2022-08-19T23:09:57.217Z,14.08
2022-08-19T23:12:32.813Z,14.04
2022-08-19T23:15:07.578Z,13.95
2022-08-19T23:17:35.465Z,13.93
2022-08-19T23:20:04.264Z,13.85
2022-08-19T23:22:31.216Z,13.76
2022-08-19T23:25:10.524Z,13.68
2022-08-19T23:27:56.276Z,13.61
2022-08-19T23:30:26.143Z,13.56
2022-08-19T23:33:07.674Z,13.50
2022-08-19T23:35:38.462Z,13.45
2022-08-19T23:38:06.942Z,13.42
2022-08-19T23:40:36.825Z,13.40
2022-08-19T23:43:07.904Z,13.37
2022-08-19T23:45:38.434Z,13.34
2022-08-19T23:48:08.285Z,13.31
2022-08-19T23:50:36.007Z,13.31
2022-08-19T23:53:04.530Z,13.26
2022-08-19T23:55:35.477Z,13.23
2022-08-19T23:58:03.191Z,13.23
